Terminal Aerodrome Forecast
Issued by NWS Cleveland, OH

Home | Current Version | Previous Version | Graphics & Text | Print | Product List | Glossary On
Versions: 1 2 3 4 5 6 7 8 9 10 11 12 13 14 15 16 17 18 19 20 21 22 23 24
520
FTUS41 KCLE 240320 AAA
TAFMFD
TAF AMD
KMFD 240320Z 2403/2424 12004KT P6SM VCTS SCT035CB OVC200
     FM240600 14005KT P6SM OVC200
     FM241400 11008KT P6SM OVC035
     FM241500 12008KT P6SM OVC025
     FM241800 12010KT P6SM -SHRA OVC020
     FM242000 12010KT 5SM -SHRA OVC015
     FM242300 11010KT 6SM -SHRA OVC007=

USA.gov is the U.S. government's official web portal to all federal, state and local government web resources and services.